Time;durP1;ratioP1;P1;durP2;ratioP2;P2;SDS_P1;SDS_P2;PMS_P1;PMS_P2;Temp;Humidity;BMP_temperature;BMP_pressure;BME280_temperature;BME280_humidity;BME280_pressure;Samples;Min_cycle;Max_cycle;Signal;HPM_P1;HPM_P2
2021/12/29 00:01:20;;;;;;;;;;;;;;;18.36;46.80;99755.31;4984499;28;20580;-45
2021/12/29 00:03:45;;;;;;;;;;;;;;;18.35;46.99;99765.25;4983575;28;19918;-45
2021/12/29 00:06:10;;;;;;;;;;;;;;;18.34;46.99;99760.88;4983513;28;19974;-43
2021/12/29 00:08:35;;;;;;;;;;;;;;;18.34;46.89;99768.13;4983923;28;19925;-42
2021/12/29 00:11:00;;;;;;;;;;;;;;;18.34;46.76;99776.19;4983905;28;19948;-48
2021/12/29 00:13:26;;;;;;;;;;;;;;;18.33;46.92;99785.28;4983813;28;19918;-46
2021/12/29 00:15:57;;;;;;;;;;;;;;;18.33;46.74;99785.28;4983668;28;19918;-41
2021/12/29 00:18:22;;;;;;;;;;;;;;;18.32;46.92;99786.31;4983027;28;19922;-42
2021/12/29 00:20:47;;;;;;;;;;;;;;;18.21;46.76;99766.94;4983870;28;19924;-46
2021/12/29 00:23:12;;;;;;;;;;;;;;;18.32;46.88;99786.31;4983341;28;19949;-43
2021/12/29 00:25:37;;;;;;;;;;;;;;;18.30;46.90;99799.94;4983427;28;19922;-46
2021/12/29 00:28:03;;;;;;;;;;;;;;;18.30;46.83;99804.50;4983333;28;19918;-46
2021/12/29 00:30:28;;;;;;;;;;;;;;;18.28;46.95;99810.09;4983794;28;19918;-42
2021/12/29 00:32:53;;;;;;;;;;;;;;;18.29;46.68;99810.91;4983142;28;19957;-45
2021/12/29 00:35:18;;;;;;;;;;;;;;;18.30;46.69;99826.03;4983832;28;19941;-46
2021/12/29 00:37:44;;;;;;;;;;;;;;;18.29;46.72;99837.81;4983345;28;19918;-43
2021/12/29 00:40:10;;;;;;;;;;;;;;;18.28;46.73;99844.22;4983705;28;19987;-42
2021/12/29 00:42:35;;;;;;;;;;;;;;;18.28;46.71;99861.22;4975582;28;19918;-44
2021/12/29 00:45:00;;;;;;;;;;;;;;;18.26;46.85;99868.63;4983588;28;19918;-44
2021/12/29 00:47:29;;;;;;;;;;;;;;;18.26;46.86;99874.00;4982955;28;19922;-45
2021/12/29 00:49:55;;;;;;;;;;;;;;;18.25;46.66;99883.09;4966327;28;20100;-44
2021/12/29 00:52:20;;;;;;;;;;;;;;;18.25;46.71;99888.47;4983344;28;20437;-42
2021/12/29 00:54:45;;;;;;;;;;;;;;;18.25;46.73;99899.25;4983416;28;20056;-44
2021/12/29 00:57:10;;;;;;;;;;;;;;;18.24;46.65;99901.09;4983240;28;20433;-43
2021/12/29 00:59:36;;;;;;;;;;;;;;;18.24;46.91;99916.41;4983370;28;19919;-44
2021/12/29 01:02:01;;;;;;;;;;;;;;;18.23;46.78;99920.13;4983236;28;20009;-43
2021/12/29 01:04:26;;;;;;;;;;;;;;;18.22;46.93;99924.69;4982916;28;19946;-45
2021/12/29 01:06:52;;;;;;;;;;;;;;;18.22;46.65;99934.59;4982790;28;19976;-43
2021/12/29 01:09:17;;;;;;;;;;;;;;;18.22;46.69;99939.97;4983560;28;19917;-43
2021/12/29 01:11:42;;;;;;;;;;;;;;;18.22;46.85;99940.84;4984554;28;20402;-46
2021/12/29 01:14:08;;;;;;;;;;;;;;;18.21;46.64;99954.44;4987030;28;19918;-46
2021/12/29 01:19:00;;;;;;;;;;;;;;;18.20;46.59;99969.75;4986630;28;19929;-43
2021/12/29 01:21:25;;;;;;;;;;;;;;;18.19;46.66;99970.78;4987082;28;19918;-42
2021/12/29 01:23:50;;;;;;;;;;;;;;;18.18;46.78;99969.13;4986752;28;20010;-43
2021/12/29 01:26:17;;;;;;;;;;;;;;;18.19;46.65;99983.41;4985122;28;19922;-43
2021/12/29 01:28:42;;;;;;;;;;;;;;;18.07;46.77;99979.53;4986481;28;20465;-43
2021/12/29 01:31:07;;;;;;;;;;;;;;;18.17;46.77;100004.28;4986940;28;19966;-47
2021/12/29 01:33:32;;;;;;;;;;;;;;;18.17;46.65;100018.56;4986444;28;19926;-48
2021/12/29 01:35:57;;;;;;;;;;;;;;;18.16;46.63;100024.13;4986657;28;19918;-44
2021/12/29 01:38:22;;;;;;;;;;;;;;;18.15;46.78;100034.06;4986653;28;19952;-43
2021/12/29 01:40:49;;;;;;;;;;;;;;;18.15;46.82;100033.22;4986633;28;19925;-43
2021/12/29 01:43:14;;;;;;;;;;;;;;;18.15;46.64;100046.69;4986581;28;19941;-44
2021/12/29 01:45:39;;;;;;;;;;;;;;;18.15;46.63;100054.75;4986803;28;19925;-44
2021/12/29 01:48:05;;;;;;;;;;;;;;;18.15;46.66;100062.81;4985721;28;19922;-44
2021/12/29 01:50:31;;;;;;;;;;;;;;;18.13;46.57;100064.84;4986717;28;20013;-46
2021/12/29 01:53:01;;;;;;;;;;;;;;;18.13;46.62;100068.38;4986219;28;20302;-44
2021/12/29 01:55:27;;;;;;;;;;;;;;;18.12;46.65;100072.09;4986586;28;19961;-42
2021/12/29 01:57:53;;;;;;;;;;;;;;;18.11;46.65;100083.03;4985856;28;19926;-43
2021/12/29 02:00:19;;;;;;;;;;;;;;;18.11;46.62;100073.13;4986599;28;19941;-44
2021/12/29 02:02:44;;;;;;;;;;;;;;;18.10;46.61;100070.63;4985828;28;19945;-41
2021/12/29 02:05:10;;;;;;;;;;;;;;;18.09;46.79;100066.22;4986111;28;19929;-42
2021/12/29 02:07:35;;;;;;;;;;;;;;;18.08;46.60;100086.91;4985853;28;19925;-47
2021/12/29 02:10:00;;;;;;;;;;;;;;;18.07;46.63;100087.94;4986217;28;19925;-44
2021/12/29 02:12:25;;;;;;;;;;;;;;;18.07;46.55;100079.88;4986221;28;19961;-47
2021/12/29 02:14:50;;;;;;;;;;;;;;;18.07;46.82;100089.81;4986048;28;19918;-45
2021/12/29 02:17:16;;;;;;;;;;;;;;;18.06;46.63;100085.44;4985463;28;19922;-42
2021/12/29 02:19:45;;;;;;;;;;;;;;;18.04;46.80;100091.00;4985757;28;19925;-43
2021/12/29 02:22:28;;;;;;;;;;;;;;;18.04;46.82;100100.91;4985623;28;19925;-42
2021/12/29 02:25:06;;;;;;;;;;;;;;;18.04;46.70;100106.31;4985511;28;19910;-43
2021/12/29 02:27:31;;;;;;;;;;;;;;;18.03;46.76;100113.53;4985751;28;19918;-42
2021/12/29 02:29:56;;;;;;;;;;;;;;;18.03;46.70;100104.63;4984690;28;19918;-44
2021/12/29 02:32:22;;;;;;;;;;;;;;;18.02;46.47;100103.81;4984376;28;19929;-44
2021/12/29 02:34:47;;;;;;;;;;;;;;;18.02;46.64;100108.34;4985506;28;19925;-44
2021/12/29 02:37:19;;;;;;;;;;;;;;;17.99;46.75;100107.69;4985268;28;19918;-46
2021/12/29 02:39:44;;;;;;;;;;;;;;;17.98;46.76;100111.41;4986013;28;19918;-46
2021/12/29 02:42:10;;;;;;;;;;;;;;;17.99;46.48;100117.59;4985615;28;19953;-46
2021/12/29 02:44:40;;;;;;;;;;;;;;;17.98;46.77;100121.31;4985593;28;19941;-44
2021/12/29 02:47:05;;;;;;;;;;;;;;;17.97;46.62;100133.09;4985199;28;20256;-44
2021/12/29 02:49:31;;;;;;;;;;;;;;;17.95;46.83;100133.25;4983848;28;19925;-45
2021/12/29 02:51:56;;;;;;;;;;;;;;;17.96;46.71;100137.63;4984514;28;19921;-45
2021/12/29 02:54:22;;;;;;;;;;;;;;;17.96;46.69;100142.16;4985440;28;19980;-45
2021/12/29 02:56:49;;;;;;;;;;;;;;;17.96;46.83;100139.47;4984757;28;19973;-45
2021/12/29 02:59:15;;;;;;;;;;;;;;;17.95;46.67;100141.34;4985369;28;19918;-44
2021/12/29 03:01:40;;;;;;;;;;;;;;;17.94;46.78;100147.75;4985214;28;20810;-43
2021/12/29 03:04:06;;;;;;;;;;;;;;;17.93;46.62;100139.88;4984418;28;19914;-43
2021/12/29 03:06:31;;;;;;;;;;;;;;;17.93;46.69;100139.88;4984815;28;20605;-44
2021/12/29 03:08:56;;;;;;;;;;;;;;;17.92;46.82;100147.06;4985075;28;20286;-44
2021/12/29 03:11:21;;;;;;;;;;;;;;;17.91;46.59;100145.41;4985438;28;19989;-43
2021/12/29 03:13:47;;;;;;;;;;;;;;;17.90;46.49;100156.34;4985049;28;20169;-46
2021/12/29 03:16:12;;;;;;;;;;;;;;;17.90;46.79;100167.09;4984971;28;19918;-41
2021/12/29 03:18:37;;;;;;;;;;;;;;;17.89;46.68;100173.50;4984177;28;19922;-45
2021/12/29 03:21:02;;;;;;;;;;;;;;;17.89;46.56;100176.19;4985024;28;19965;-41
2021/12/29 03:23:28;;;;;;;;;;;;;;;17.87;46.59;100179.03;4984792;28;19918;-42
2021/12/29 03:25:53;;;;;;;;;;;;;;;17.87;46.73;100189.81;4984653;28;20013;-43
2021/12/29 03:28:19;;;;;;;;;;;;;;;17.88;46.80;100187.94;4983398;28;20427;-44
2021/12/29 03:30:48;;;;;;;;;;;;;;;17.86;46.63;100188.13;4984714;28;20368;-42
2021/12/29 03:33:13;;;;;;;;;;;;;;;17.86;46.76;100198.91;4983965;28;19946;-42
2021/12/29 03:35:38;;;;;;;;;;;;;;;17.85;46.88;100194.53;4984216;28;19914;-41
2021/12/29 03:38:04;;;;;;;;;;;;;;;17.84;46.70;100198.25;4984219;28;20312;-42
2021/12/29 03:40:29;;;;;;;;;;;;;;;17.84;46.56;100206.31;4984857;28;19914;-43
2021/12/29 03:42:54;;;;;;;;;;;;;;;17.84;46.65;100218.91;4984208;28;20016;-44
2021/12/29 03:45:20;;;;;;;;;;;;;;;17.84;46.74;100226.97;4984560;28;20004;-43
2021/12/29 03:47:45;;;;;;;;;;;;;;;17.84;46.70;100218.91;4982294;28;19922;-41
2021/12/29 03:50:10;;;;;;;;;;;;;;;17.83;46.65;100236.91;4984366;28;19918;-42
2021/12/29 03:52:35;;;;;;;;;;;;;;;17.83;46.67;100241.44;4982712;28;19914;-46
2021/12/29 03:55:00;;;;;;;;;;;;;;;17.81;46.67;100247.00;4984095;28;19919;-45
2021/12/29 03:57:26;;;;;;;;;;;;;;;17.82;46.77;100245.16;4984035;28;19945;-45
2021/12/29 03:59:51;;;;;;;;;;;;;;;17.81;46.72;100251.53;4983880;28;19943;-43
2021/12/29 04:02:16;;;;;;;;;;;;;;;17.80;46.64;100248.03;4984140;28;19918;-47
2021/12/29 04:04:41;;;;;;;;;;;;;;;17.80;46.59;100250.72;4983691;28;20670;-44
2021/12/29 04:07:06;;;;;;;;;;;;;;;17.80;46.67;100252.53;4983735;28;19944;-45
2021/12/29 04:09:31;;;;;;;;;;;;;;;17.79;46.71;100254.41;4984286;28;19960;-46
2021/12/29 04:11:57;;;;;;;;;;;;;;;17.78;46.72;100258.09;4983836;28;19941;-44
2021/12/29 04:14:25;;;;;;;;;;;;;;;17.77;46.70;100261.81;4982586;28;19997;-44
2021/12/29 04:16:51;;;;;;;;;;;;;;;17.77;46.49;100275.25;4983680;28;19914;-43
2021/12/29 04:19:29;;;;;;;;;;;;;;;17.76;46.53;100260.16;4983486;28;19918;-42
2021/12/29 04:21:55;;;;;;;;;;;;;;;17.76;46.51;100272.75;4990198;28;19918;-42
2021/12/29 04:24:20;;;;;;;;;;;;;;;17.75;46.69;100285.34;4983997;28;19973;-44
2021/12/29 04:26:45;;;;;;;;;;;;;;;17.73;46.65;100279.28;4983390;28;19922;-41
2021/12/29 04:29:13;;;;;;;;;;;;;;;17.73;46.70;100281.97;4983644;28;19925;-42
2021/12/29 04:31:38;;;;;;;;;;;;;;;17.74;46.55;100283.66;4983850;28;19918;-44
2021/12/29 04:34:03;;;;;;;;;;;;;;;17.72;46.75;100294.59;4982937;28;19926;-43
2021/12/29 04:36:28;;;;;;;;;;;;;;;17.72;46.59;100291.06;4983592;28;19960;-45
2021/12/29 04:38:54;;;;;;;;;;;;;;;17.71;46.70;100300.97;4983307;28;19962;-43
2021/12/29 04:41:19;;;;;;;;;;;;;;;17.70;46.71;100293.91;4983836;28;19926;-43
2021/12/29 04:43:45;;;;;;;;;;;;;;;17.70;46.69;100298.44;4983507;28;19983;-43
2021/12/29 04:46:16;;;;;;;;;;;;;;;17.69;46.68;100296.78;4982685;28;19933;-45
2021/12/29 04:48:47;;;;;;;;;;;;;;;17.68;46.58;100298.63;4983116;28;19918;-47
2021/12/29 04:51:15;;;;;;;;;;;;;;;17.69;46.71;100305.69;4983481;28;19922;-42
2021/12/29 04:53:41;;;;;;;;;;;;;;;17.69;46.57;100308.38;4983425;28;19925;-43
2021/12/29 04:56:06;;;;;;;;;;;;;;;17.68;46.52;100316.63;4983151;28;19941;-45
2021/12/29 04:58:31;;;;;;;;;;;;;;;17.67;46.52;100317.59;4983454;28;20002;-45
2021/12/29 05:00:56;;;;;;;;;;;;;;;17.67;46.54;100320.28;4983562;28;19920;-44
2021/12/29 05:03:21;;;;;;;;;;;;;;;17.67;46.66;100328.34;4982707;28;20009;-43
2021/12/29 05:05:57;;;;;;;;;;;;;;;17.67;46.47;100329.22;5014843;28;19922;-45
2021/12/29 05:08:25;;;;;;;;;;;;;;;17.66;46.54;100329.38;4983559;28;19950;-43
2021/12/29 05:10:51;;;;;;;;;;;;;;;17.65;46.65;100339.28;4983478;28;20066;-43
2021/12/29 05:13:16;;;;;;;;;;;;;;;17.65;46.62;100346.53;5014519;28;19918;-41
2021/12/29 05:15:42;;;;;;;;;;;;;;;17.64;46.58;100351.06;4983473;28;19922;-42
2021/12/29 05:18:07;;;;;;;;;;;;;;;17.64;46.70;100358.31;4982109;28;19961;-42
2021/12/29 05:20:32;;;;;;;;;;;;;;;17.63;46.48;100360.16;4983281;28;19949;-43
2021/12/29 05:22:58;;;;;;;;;;;;;;;17.62;46.74;100357.63;5014534;28;19973;-44
2021/12/29 05:25:23;;;;;;;;;;;;;;;17.62;46.54;100355.75;4982911;28;19933;-43
2021/12/29 05:27:48;;;;;;;;;;;;;;;17.62;46.56;100360.31;4983060;28;19965;-42
2021/12/29 05:30:14;;;;;;;;;;;;;;;17.62;46.74;100361.13;4983230;28;20414;-43
2021/12/29 05:32:39;;;;;;;;;;;;;;;17.61;46.61;100362.16;4983000;28;19986;-41
2021/12/29 05:35:04;;;;;;;;;;;;;;;17.62;46.54;100360.31;4982543;28;19946;-42
2021/12/29 05:37:29;;;;;;;;;;;;;;;17.61;46.48;100359.47;4982860;28;19918;-44
2021/12/29 05:39:55;;;;;;;;;;;;;;;17.60;46.36;100355.13;4983159;28;19949;-45
2021/12/29 05:42:20;;;;;;;;;;;;;;;17.61;46.51;100366.69;4982971;28;19918;-43
2021/12/29 05:44:45;;;;;;;;;;;;;;;17.60;46.53;100370.41;5014255;28;19970;-45
2021/12/29 05:47:10;;;;;;;;;;;;;;;17.59;46.43;100366.88;4982679;28;19922;-44
2021/12/29 05:49:35;;;;;;;;;;;;;;;17.59;46.69;100374.13;4982481;28;19922;-42
2021/12/29 05:52:00;;;;;;;;;;;;;;;17.60;46.64;100373.09;4983090;28;19918;-43
2021/12/29 05:54:27;;;;;;;;;;;;;;;17.59;46.58;100377.63;4982793;28;19922;-43
2021/12/29 05:56:52;;;;;;;;;;;;;;;17.59;46.64;100387.56;4982467;28;19925;-44
2021/12/29 05:59:17;;;;;;;;;;;;;;;17.59;46.50;100388.38;4985715;28;19918;-48
2021/12/29 06:01:44;;;;;;;;;;;;;;;17.60;46.60;100389.22;4986219;28;19926;-44
2021/12/29 06:04:09;;;;;;;;;;;;;;;17.59;46.63;100388.38;4985346;28;19921;-43
2021/12/29 06:06:34;;;;;;;;;;;;;;;17.60;46.66;100394.59;4985717;28;19962;-43
2021/12/29 06:08:59;;;;;;;;;;;;;;;17.60;46.52;100399.97;4984612;28;19925;-43
2021/12/29 06:11:24;;;;;;;;;;;;;;;17.60;46.72;100397.28;4982682;28;19918;-43
2021/12/29 06:13:50;;;;;;;;;;;;;;;17.59;46.50;100399.16;4985762;28;19990;-45
2021/12/29 06:16:15;;;;;;;;;;;;;;;17.60;46.64;100408.88;4985265;28;19961;-46
2021/12/29 06:18:40;;;;;;;;;;;;;;;17.60;46.80;100402.66;4984941;28;19998;-45
2021/12/29 06:21:05;;;;;;;;;;;;;;;17.60;46.80;100411.56;4985678;28;20336;-45
2021/12/29 06:23:30;;;;;;;;;;;;;;;17.60;46.65;100403.50;4985424;28;19918;-41
2021/12/29 06:25:55;;;;;;;;;;;;;;;17.60;46.80;100400.81;4984915;28;19922;-41
2021/12/29 06:28:20;;;;;;;;;;;;;;;17.61;46.64;100412.41;4985166;28;19918;-43
2021/12/29 06:30:46;;;;;;;;;;;;;;;17.60;46.92;100402.66;4985350;28;19918;-44
2021/12/29 06:33:11;;;;;;;;;;;;;;;17.60;46.80;100410.72;4984960;28;19976;-45
2021/12/29 06:35:36;;;;;;;;;;;;;;;17.60;46.80;100408.03;4985149;28;19925;-43
2021/12/29 06:38:01;;;;;;;;;;;;;;;17.59;46.89;100415.28;4984811;28;19919;-45
2021/12/29 06:40:27;;;;;;;;;;;;;;;17.61;46.94;100415.09;4985521;28;19922;-44
2021/12/29 06:42:52;;;;;;;;;;;;;;;17.61;46.95;100412.41;4990558;28;19921;-42
2021/12/29 06:45:17;;;;;;;;;;;;;;;17.61;47.09;100415.09;4986145;28;19925;-43
2021/12/29 06:47:42;;;;;;;;;;;;;;;17.61;47.15;100423.16;4984883;28;19937;-43
2021/12/29 06:50:07;;;;;;;;;;;;;;;17.61;47.03;100431.22;4982534;28;19942;-42
2021/12/29 06:52:33;;;;;;;;;;;;;;;17.60;46.97;100430.38;4982715;28;19921;-44
2021/12/29 06:54:58;;;;;;;;;;;;;;;17.62;47.22;100440.94;4984989;28;19918;-43
2021/12/29 06:57:23;;;;;;;;;;;;;;;17.61;47.23;100441.97;4984895;28;20367;-47
2021/12/29 06:59:48;;;;;;;;;;;;;;;17.62;47.05;100440.94;4985071;28;19914;-43
2021/12/29 07:02:14;;;;;;;;;;;;;;;17.61;47.04;100436.59;4985042;28;19965;-46
2021/12/29 07:04:40;;;;;;;;;;;;;;;17.61;47.14;100440.13;4984831;28;19922;-45
2021/12/29 07:07:05;;;;;;;;;;;;;;;17.61;47.26;100447.34;4984788;28;19953;-45
2021/12/29 07:09:30;;;;;;;;;;;;;;;17.62;47.16;100454.41;4984552;28;19914;-46
2021/12/29 07:11:55;;;;;;;;;;;;;;;17.62;47.10;100451.72;4985014;28;19978;-46
2021/12/29 07:14:21;;;;;;;;;;;;;;;17.61;47.15;100444.66;4984745;28;19922;-43
2021/12/29 07:16:47;;;;;;;;;;;;;;;17.62;47.18;100459.78;4984132;28;19922;-48
2021/12/29 07:19:12;;;;;;;;;;;;;;;17.62;47.24;100470.53;4989304;28;20304;-44
2021/12/29 07:21:37;;;;;;;;;;;;;;;17.62;47.37;100474.03;4982994;28;20553;-44
2021/12/29 07:24:03;;;;;;;;;;;;;;;17.62;47.21;100473.22;4988482;28;19922;-44
2021/12/29 07:26:28;;;;;;;;;;;;;;;17.61;47.35;100482.28;4982658;28;19926;-44
2021/12/29 07:28:53;;;;;;;;;;;;;;;17.61;47.25;100482.28;4984827;28;19928;-44
2021/12/29 07:31:18;;;;;;;;;;;;;;;17.62;47.56;100483.97;4989490;28;19933;-44
2021/12/29 07:33:44;;;;;;;;;;;;;;;17.64;47.45;100485.50;4984460;28;19918;-46
2021/12/29 07:36:11;;;;;;;;;;;;;;;17.69;48.07;100493.03;4986668;28;19933;-43
2021/12/29 07:38:36;;;;;;;;;;;;;;;17.76;48.80;100491.38;4989303;28;19925;-46
2021/12/29 07:41:01;;;;;;;;;;;;;;;17.80;49.31;100486.47;4989565;28;19918;-46
2021/12/29 07:43:26;;;;;;;;;;;;;;;17.83;50.17;100496.91;4986047;28;19925;-48
2021/12/29 07:45:54;;;;;;;;;;;;;;;17.84;50.88;100498.56;4983684;28;19922;-46
2021/12/29 07:48:25;;;;;;;;;;;;;;;17.84;51.50;100496.75;4984776;28;19921;-43
2021/12/29 07:50:50;;;;;;;;;;;;;;;17.86;52.00;100504.63;4982342;28;19918;-45
2021/12/29 07:53:15;;;;;;;;;;;;;;;17.84;52.26;100504.81;4983094;28;19918;-43
2021/12/29 07:55:40;;;;;;;;;;;;;;;17.85;52.71;100521.78;4984564;28;19953;-50
2021/12/29 07:58:05;;;;;;;;;;;;;;;17.84;52.88;100528.16;4983770;28;20005;-45
2021/12/29 08:00:30;;;;;;;;;;;;;;;17.84;52.94;100536.22;4983937;28;19918;-43
2021/12/29 08:02:56;;;;;;;;;;;;;;;17.85;53.00;100529.84;4983657;28;19925;-48
2021/12/29 08:05:22;;;;;;;;;;;;;;;17.85;53.07;100530.69;4984117;28;19918;-53
2021/12/29 08:07:47;;;;;;;;;;;;;;;17.87;52.93;100534.03;4983815;28;19924;-44
2021/12/29 08:10:13;;;;;;;;;;;;;;;17.91;52.92;100535.38;4984385;28;20038;-47
2021/12/29 08:12:38;;;;;;;;;;;;;;;17.94;52.79;100540.44;5015025;28;20560;-41
2021/12/29 08:15:03;;;;;;;;;;;;;;;17.95;52.68;100541.25;4983839;28;19922;-54
2021/12/29 08:17:32;;;;;;;;;;;;;;;17.96;52.45;100546.47;4983552;28;19937;-44
2021/12/29 08:19:57;;;;;;;;;;;;;;;17.97;52.38;100544.63;4983369;28;19949;-46
2021/12/29 08:22:22;;;;;;;;;;;;;;;17.97;52.31;100544.63;4983189;28;19918;-45
2021/12/29 08:24:47;;;;;;;;;;;;;;;17.98;52.09;100543.63;4983838;28;19925;-45
2021/12/29 08:27:12;;;;;;;;;;;;;;;17.97;52.11;100550.00;4982721;28;20514;-46
2021/12/29 08:29:38;;;;;;;;;;;;;;;17.96;51.92;100557.22;4980368;28;19918;-48
2021/12/29 08:32:03;;;;;;;;;;;;;;;17.94;52.00;100553.88;4983246;28;19968;-43
2021/12/29 08:34:28;;;;;;;;;;;;;;;17.94;51.61;100555.72;4979128;28;19917;-47
2021/12/29 08:36:54;;;;;;;;;;;;;;;17.94;51.56;100550.34;4983455;28;19977;-46
2021/12/29 08:39:19;;;;;;;;;;;;;;;17.94;51.41;100550.34;4983561;28;19925;-49
2021/12/29 08:41:45;;;;;;;;;;;;;;;17.94;51.52;100536.91;4983768;28;19969;-45
2021/12/29 08:44:10;;;;;;;;;;;;;;;17.92;51.46;100537.03;4983211;28;19961;-50
2021/12/29 08:46:35;;;;;;;;;;;;;;;17.93;51.41;100538.75;4983523;28;20029;-45
2021/12/29 08:49:00;;;;;;;;;;;;;;;17.94;51.25;100531.53;4982914;28;19960;-43
2021/12/29 08:51:25;;;;;;;;;;;;;;;17.94;51.23;100536.91;4979886;28;19971;-44
2021/12/29 08:53:51;;;;;;;;;;;;;;;17.95;51.15;100541.25;4978472;28;19989;-44
2021/12/29 08:56:16;;;;;;;;;;;;;;;17.96;51.29;100538.38;4981229;28;19919;-50
2021/12/29 08:58:42;;;;;;;;;;;;;;;17.97;51.31;100541.94;4981210;28;20087;-46
2021/12/29 09:01:07;;;;;;;;;;;;;;;17.97;51.15;100556.22;4980489;28;19918;-47
2021/12/29 09:03:33;;;;;;;;;;;;;;;17.98;51.32;100568.66;4980627;28;19922;-47
2021/12/29 09:05:58;;;;;;;;;;;;;;;18.01;51.34;100558.56;4981161;28;19965;-39
2021/12/29 09:08:23;;;;;;;;;;;;;;;18.03;51.65;100561.94;4981293;28;20555;-47
2021/12/29 09:10:48;;;;;;;;;;;;;;;18.05;51.47;100565.28;4980977;28;19930;-46
2021/12/29 09:13:13;;;;;;;;;;;;;;;18.07;51.34;100568.66;4981107;28;19954;-45
2021/12/29 09:15:39;;;;;;;;;;;;;;;18.07;51.11;100576.72;4981491;28;19928;-46
2021/12/29 09:18:04;;;;;;;;;;;;;;;18.08;50.96;100568.47;4980445;28;20705;-46
2021/12/29 09:20:32;;;;;;;;;;;;;;;18.08;51.13;100565.78;4980913;28;20029;-44
2021/12/29 09:22:59;;;;;;;;;;;;;;;18.09;50.73;100567.44;4981070;28;19922;-47
2021/12/29 09:25:24;;;;;;;;;;;;;;;18.10;50.85;100569.16;4980993;28;19930;-46
2021/12/29 09:27:50;;;;;;;;;;;;;;;18.11;50.57;100569.97;4981092;28;19957;-44
2021/12/29 09:30:17;;;;;;;;;;;;;;;18.12;50.60;100556.34;4976549;28;19925;-50
2021/12/29 09:32:42;;;;;;;;;;;;;;;18.14;50.55;100569.66;4982461;28;19922;-45
2021/12/29 09:35:07;;;;;;;;;;;;;;;18.15;50.35;100552.50;4984453;28;19941;-45
2021/12/29 09:37:32;;;;;;;;;;;;;;;18.16;50.19;100555.00;4984601;28;19926;-47
2021/12/29 09:39:58;;;;;;;;;;;;;;;18.17;49.99;100548.59;4983711;28;19922;-46
2021/12/29 09:42:23;;;;;;;;;;;;;;;18.18;50.04;100558.38;4984614;28;20349;-47
2021/12/29 09:44:48;;;;;;;;;;;;;;;18.20;50.05;100566.25;4984875;28;19942;-46
2021/12/29 09:47:13;;;;;;;;;;;;;;;18.21;49.80;100565.25;4982066;28;19962;-45
2021/12/29 09:49:39;;;;;;;;;;;;;;;18.21;49.90;100559.84;5015346;28;19933;-47
2021/12/29 09:52:04;;;;;;;;;;;;;;;18.21;49.77;100560.69;4983545;28;20550;-50
2021/12/29 09:54:29;;;;;;;;;;;;;;;18.22;49.56;100561.53;4983586;28;19977;-47
2021/12/29 09:56:54;;;;;;;;;;;;;;;18.23;49.71;100560.53;4984111;28;19922;-45
2021/12/29 09:59:20;;;;;;;;;;;;;;;18.23;49.71;100564.06;4984257;28;20049;-44
2021/12/29 10:01:45;;;;;;;;;;;;;;;18.24;49.78;100556.84;4982948;28;19925;-45
2021/12/29 10:04:13;;;;;;;;;;;;;;;18.24;49.49;100563.06;4983622;28;19938;-48
2021/12/29 10:06:38;;;;;;;;;;;;;;;18.24;49.58;100568.44;4984228;28;19922;-47
2021/12/29 10:09:11;;;;;;;;;;;;;;;18.25;49.40;100563.88;4984412;28;19918;-46
2021/12/29 10:11:36;;;;;;;;;;;;;;;18.26;49.36;100568.25;4984098;28;19933;-46
2021/12/29 10:14:05;;;;;;;;;;;;;;;18.26;49.48;100567.41;4984280;28;19918;-46
2021/12/29 10:16:31;;;;;;;;;;;;;;;18.26;49.49;100559.34;4984022;28;19922;-44
2021/12/29 10:19:00;;;;;;;;;;;;;;;18.26;49.53;100554.78;4983364;28;19922;-44
2021/12/29 10:21:26;;;;;;;;;;;;;;;18.28;49.47;100562.72;4983287;28;20006;-50
2021/12/29 10:23:52;;;;;;;;;;;;;;;18.27;49.46;100563.72;4981822;28;20127;-45
2021/12/29 10:26:21;;;;;;;;;;;;;;;18.29;49.15;100553.63;4983637;28;19926;-47
2021/12/29 10:28:48;;;;;;;;;;;;;;;18.30;49.19;100552.59;4983887;28;19965;-45
2021/12/29 10:31:15;;;;;;;;;;;;;;;18.30;49.31;100539.97;4982934;28;19926;-45
2021/12/29 10:33:45;;;;;;;;;;;;;;;18.31;49.22;100541.69;4983308;28;20235;-48
2021/12/29 10:36:12;;;;;;;;;;;;;;;18.31;49.09;100544.38;4983728;28;19922;-43
2021/12/29 10:38:37;;;;;;;;;;;;;;;18.32;49.16;100542.50;4983854;28;19929;-44
2021/12/29 10:41:03;;;;;;;;;;;;;;;18.33;49.10;100538.81;4982577;28;20153;-44
2021/12/29 10:43:28;;;;;;;;;;;;;;;18.34;48.97;100538.63;4983039;28;19922;-46
2021/12/29 10:45:53;;;;;;;;;;;;;;;18.34;49.02;100543.16;4983333;28;20616;-45
2021/12/29 10:48:29;;;;;;;;;;;;;;;18.33;48.90;100545.03;4983034;28;19925;-47
2021/12/29 10:50:54;;;;;;;;;;;;;;;18.35;49.14;100552.91;4983209;28;19922;-46
2021/12/29 10:53:20;;;;;;;;;;;;;;;18.36;49.26;100552.75;4983566;28;19977;-54
2021/12/29 10:55:45;;;;;;;;;;;;;;;18.38;49.45;100541.81;4983421;28;19921;-47
2021/12/29 10:58:11;;;;;;;;;;;;;;;18.41;49.30;100539.59;4982844;28;19922;-55
2021/12/29 11:00:37;;;;;;;;;;;;;;;18.45;49.53;100545.50;4982793;28;19929;-53
2021/12/29 11:03:11;;;;;;;;;;;;;;;18.46;49.62;100542.63;4982796;28;20378;-51
2021/12/29 11:05:38;;;;;;;;;;;;;;;18.48;49.60;100547.84;4983291;28;19918;-52
2021/12/29 11:08:07;;;;;;;;;;;;;;;18.51;49.60;100554.72;4983250;28;19926;-44
2021/12/29 11:10:32;;;;;;;;;;;;;;;18.54;49.70;100559.75;4982266;28;20437;-48
2021/12/29 11:12:57;;;;;;;;;;;;;;;18.56;49.68;100547.78;4982003;28;19918;-54
2021/12/29 11:15:41;;;;;;;;;;;;;;;18.59;49.72;100550.13;4982260;28;19928;-51
2021/12/29 11:18:10;;;;;;;;;;;;;;;18.61;49.94;100558.88;4981302;28;19937;-48
2021/12/29 11:20:35;;;;;;;;;;;;;;;18.63;49.80;100570.31;4982447;28;20001;-47
2021/12/29 11:23:14;;;;;;;;;;;;;;;18.65;49.90;100562.06;4982910;28;19972;-44
2021/12/29 11:25:39;;;;;;;;;;;;;;;18.66;49.77;100567.28;4982390;28;19918;-46
2021/12/29 11:28:05;;;;;;;;;;;;;;;18.68;49.79;100577.84;4982355;28;19921;-49
2021/12/29 11:30:31;;;;;;;;;;;;;;;18.67;49.50;100571.63;4980483;28;19922;-47
2021/12/29 11:33:04;;;;;;;;;;;;;;;18.66;49.69;100586.13;4980189;28;19919;-47
2021/12/29 11:35:29;;;;;;;;;;;;;;;18.65;49.40;100583.63;4982787;28;19958;-46
2021/12/29 11:37:55;;;;;;;;;;;;;;;18.64;49.49;100579.22;4981785;28;19953;-43
2021/12/29 11:40:24;;;;;;;;;;;;;;;18.63;49.24;100574.84;4982287;28;19922;-46
2021/12/29 11:42:50;;;;;;;;;;;;;;;18.63;49.39;100577.56;4982125;28;20665;-47
2021/12/29 11:45:16;;;;;;;;;;;;;;;18.63;49.34;100574.84;4982770;28;19952;-46
2021/12/29 11:47:41;;;;;;;;;;;;;;;18.63;49.05;100575.69;5013469;28;19926;-44
2021/12/29 11:50:08;;;;;;;;;;;;;;;18.63;48.98;100575.69;4981315;28;19953;-45
2021/12/29 11:52:40;;;;;;;;;;;;;;;18.63;48.96;100583.78;4982221;28;19918;-47
2021/12/29 11:55:07;;;;;;;;;;;;;;;18.64;48.85;100588.13;4978408;28;19954;-44
2021/12/29 11:57:34;;;;;;;;;;;;;;;18.65;48.78;100571.00;4980214;28;19922;-44
2021/12/29 12:00:11;;;;;;;;;;;;;;;18.65;48.66;100564.75;4980940;28;20038;-46
2021/12/29 12:02:37;;;;;;;;;;;;;;;18.66;48.83;100551.13;4980199;28;19976;-48
2021/12/29 12:05:24;;;;;;;;;;;;;;;18.68;48.57;100550.94;4981097;28;19926;-46
2021/12/29 12:07:49;;;;;;;;;;;;;;;18.69;48.66;100552.59;4981359;28;19977;-49
2021/12/29 12:10:26;;;;;;;;;;;;;;;18.69;48.62;100542.72;4981081;28;19934;-44
2021/12/29 12:12:53;;;;;;;;;;;;;;;18.69;48.62;100561.56;4981490;28;20045;-47
2021/12/29 12:15:27;;;;;;;;;;;;;;;18.69;48.49;100560.69;4982159;28;19918;-53
2021/12/29 12:17:53;;;;;;;;;;;;;;;18.70;48.60;100543.56;4981213;28;19923;-48
2021/12/29 12:20:18;;;;;;;;;;;;;;;18.69;48.83;100553.50;4979652;28;19981;-43
2021/12/29 12:22:45;;;;;;;;;;;;;;;18.69;48.54;100548.13;4980434;28;20016;-41
2021/12/29 12:25:10;;;;;;;;;;;;;;;18.69;48.72;100537.34;4981830;28;19922;-43
2021/12/29 12:27:37;;;;;;;;;;;;;;;18.69;48.74;100534.66;4981931;28;19926;-44
2021/12/29 12:30:07;;;;;;;;;;;;;;;18.72;48.79;100538.81;4981195;28;19942;-46
2021/12/29 12:32:39;;;;;;;;;;;;;;;18.72;48.87;100518.13;4970686;28;19953;-46
2021/12/29 12:35:05;;;;;;;;;;;;;;;18.73;48.64;100516.25;4980346;28;19972;-49